Time;durP1;ratioP1;P1;durP2;ratioP2;P2;SDS_P1;SDS_P2;PMS_P1;PMS_P2;Temp;Humidity;BMP_temperature;BMP_pressure;BME280_temperature;BME280_humidity;BME280_pressure;Samples;Min_cycle;Max_cycle;Signal;HPM_P1;HPM_P2
2021/10/26 00:02:39;;;;;;;74.53;39.60;;;;;;;1.22;100.00;99405.27;2174477;82;21518;-87
2021/10/26 00:05:39;;;;;;;73.17;38.33;;;;;;;1.24;100.00;99412.89;2174101;82;21036;-86
2021/10/26 00:08:41;;;;;;;72.45;38.38;;;;;;;1.27;100.00;99409.62;2173689;82;21041;-86
2021/10/26 00:11:41;;;;;;;72.17;38.48;;;;;;;1.31;100.00;99404.64;2173744;82;20988;-88
2021/10/26 00:14:42;;;;;;;74.12;40.75;;;;;;;1.33;100.00;99403.23;2173593;82;21031;-84
2021/10/26 00:17:43;;;;;;;84.90;40.98;;;;;;;1.33;100.00;99397.61;2173524;82;20988;-86
2021/10/26 00:20:44;;;;;;;70.67;35.63;;;;;;;1.33;100.00;99403.23;2173610;82;21048;-86
2021/10/26 00:23:45;;;;;;;66.28;35.25;;;;;;;1.32;100.00;99406.28;2173406;82;20930;-85
2021/10/26 00:26:46;;;;;;;64.05;34.70;;;;;;;1.26;100.00;99407.16;2174135;82;21459;-86
2021/10/26 00:29:46;;;;;;;69.42;36.03;;;;;;;1.23;100.00;99401.75;2178140;80;21072;-86
2021/10/26 00:32:47;;;;;;;70.30;35.80;;;;;;;1.22;100.00;99401.39;2180450;82;20957;-86
2021/10/26 00:35:48;;;;;;;71.05;36.20;;;;;;;1.18;100.00;99402.51;2180482;82;21063;-83
2021/10/26 00:38:49;;;;;;;69.77;36.77;;;;;;;1.12;100.00;99401.19;2180490;82;20968;-85
2021/10/26 00:41:50;;;;;;;70.97;36.35;;;;;;;1.12;100.00;99415.38;2179984;82;21116;-84
2021/10/26 00:44:51;;;;;;;66.12;35.58;;;;;;;1.10;100.00;99406.92;2180546;82;21511;-84
2021/10/26 00:47:52;;;;;;;70.30;36.83;;;;;;;1.08;100.00;99410.04;2180529;82;21000;-83
2021/10/26 00:50:53;;;;;;;66.30;36.50;;;;;;;1.07;100.00;99407.57;2180348;82;20973;-84
2021/10/26 00:53:54;;;;;;;79.62;39.08;;;;;;;1.06;100.00;99412.38;2180467;82;20991;-85
2021/10/26 00:56:55;;;;;;;67.60;37.45;;;;;;;1.05;100.00;99414.13;2180559;82;21488;-86
2021/10/26 00:59:56;;;;;;;71.00;35.50;;;;;;;0.97;100.00;99422.83;2180498;82;21513;-86
2021/10/26 01:02:57;;;;;;;64.45;33.83;;;;;;;0.85;100.00;99419.78;2180199;82;21071;-86
2021/10/26 01:05:59;;;;;;;63.35;33.80;;;;;;;0.76;100.00;99411.36;2180434;82;21066;-85
2021/10/26 01:08:59;;;;;;;68.28;35.50;;;;;;;0.65;100.00;99412.53;2180241;82;21077;-84
2021/10/26 01:12:00;;;;;;;63.63;37.35;;;;;;;0.59;100.00;99409.06;2180417;82;20995;-86
2021/10/26 01:15:01;;;;;;;72.50;37.98;;;;;;;0.50;100.00;99406.61;2180574;82;21021;-86
2021/10/26 01:18:02;;;;;;;68.90;34.05;;;;;;;0.42;100.00;99408.85;2180452;82;21087;-85
2021/10/26 01:21:03;;;;;;;66.67;33.08;;;;;;;0.43;100.00;99412.61;2180522;82;20949;-86
2021/10/26 01:24:03;;;;;;;63.02;33.35;;;;;;;0.42;100.00;99408.85;2180480;82;21096;-85
2021/10/26 01:27:04;;;;;;;73.57;37.28;;;;;;;0.39;100.00;99409.06;2180322;82;21008;-84
2021/10/26 01:30:05;;;;;;;69.62;38.95;;;;;;;0.40;100.00;99405.55;2207803;80;20929;-85
2021/10/26 01:33:06;;;;;;;72.42;38.42;;;;;;;0.38;100.00;99405.66;2220075;80;21079;-83
2021/10/26 01:36:07;;;;;;;64.80;37.58;;;;;;;0.30;100.00;99406.61;2219957;80;20978;-84
2021/10/26 01:39:08;;;;;;;63.48;37.35;;;;;;;0.27;100.00;99401.63;2220234;80;20936;-82
2021/10/26 01:42:09;;;;;;;76.97;39.05;;;;;;;0.24;100.00;99393.64;2220078;80;20985;-85
2021/10/26 01:45:10;;;;;;;69.67;38.05;;;;;;;0.22;100.00;99397.25;2220676;80;21044;-84
2021/10/26 01:48:10;;;;;;;68.70;37.70;;;;;;;0.19;100.00;99395.70;2220111;80;20909;-84
2021/10/26 01:51:11;;;;;;;70.87;37.80;;;;;;;0.12;100.00;99391.86;2221603;80;21036;-79
2021/10/26 01:54:12;;;;;;;66.40;37.33;;;;;;;0.12;100.00;99392.31;2222767;80;20928;-78
2021/10/26 01:57:18;;;;;;;67.62;36.65;;;;;;;0.09;100.00;99398.50;2222595;80;20905;-79
2021/10/26 02:00:18;;;;;;;67.60;35.98;;;;;;;0.10;100.00;99391.59;2219732;80;20988;-84
2021/10/26 02:03:18;;;;;;;63.00;34.13;;;;;;;0.10;100.00;99394.17;2219934;79;20992;-83
2021/10/26 02:06:19;;;;;;;61.95;36.42;;;;;;;0.13;100.00;99393.97;2220130;80;21012;-84
2021/10/26 02:09:20;;;;;;;70.90;36.75;;;;;;;0.13;100.00;99389.64;2219855;80;21071;-83
2021/10/26 02:12:21;;;;;;;72.80;37.23;;;;;;;0.13;100.00;99396.55;2220020;80;20968;-85
2021/10/26 02:15:22;;;;;;;67.95;35.98;;;;;;;0.09;100.00;99393.78;2219968;80;21015;-84
2021/10/26 02:18:23;;;;;;;69.30;38.90;;;;;;;0.09;100.00;99383.05;2219979;80;21301;-84
2021/10/26 02:21:24;;;;;;;71.33;37.98;;;;;;;0.07;100.00;99386.16;2219894;80;21482;-84
2021/10/26 02:24:25;;;;;;;75.97;39.13;;;;;;;-0.10;100.00;99371.77;2220024;80;20929;-86
2021/10/26 02:27:26;;;;;;;72.65;39.27;;;;;;;-0.10;100.00;99371.77;2220172;80;21024;-83
2021/10/26 02:30:27;;;;;;;70.37;38.15;;;;;;;-0.07;100.00;99380.60;2211612;79;20999;-83
2021/10/26 02:33:27;;;;;;;63.98;37.25;;;;;;;-0.06;100.00;99381.42;2208661;81;21013;-84
2021/10/26 02:36:28;;;;;;;79.97;39.55;;;;;;;-0.05;100.00;99384.36;2208472;80;20954;-86
2021/10/26 02:39:29;;;;;;;71.77;37.38;;;;;;;-0.05;100.00;99377.46;2209170;81;21035;-87
2021/10/26 02:42:30;;;;;;;65.90;36.58;;;;;;;-0.01;100.00;99381.48;2209417;80;20998;-88
2021/10/26 02:45:31;;;;;;;62.67;33.80;;;;;;;0.03;100.00;99392.90;2208979;80;21105;-84
2021/10/26 02:48:33;;;;;;;60.95;34.13;;;;;;;0.03;100.00;99391.15;2208763;80;21030;-82
2021/10/26 02:51:33;;;;;;;55.73;31.82;;;;;;;0.05;100.00;99388.47;2211453;81;21456;-77
2021/10/26 02:54:34;;;;;;;65.30;34.53;;;;;;;0.00;100.00;99391.35;2211523;80;21010;-79
2021/10/26 02:57:36;;;;;;;69.53;36.13;;;;;;;-0.09;100.00;99394.47;2209692;81;20967;-83
2021/10/26 03:00:36;;;;;;;73.33;36.88;;;;;;;-0.10;100.00;99391.53;2209049;81;21485;-82
2021/10/26 03:03:37;;;;;;;76.33;35.95;;;;;;;-0.06;100.00;99386.11;2209328;80;21082;-85
2021/10/26 03:06:39;;;;;;;60.05;33.83;;;;;;;-0.04;100.00;99386.84;2209028;80;21014;-83
2021/10/26 03:09:40;;;;;;;66.20;36.10;;;;;;;0.01;100.00;99385.27;2208886;80;21153;-84
2021/10/26 03:12:41;;;;;;;61.33;32.55;;;;;;;0.04;100.00;99396.66;2209118;80;21491;-83
2021/10/26 03:15:42;;;;;;;70.62;35.33;;;;;;;0.07;100.00;99390.48;2209144;80;21057;-84
2021/10/26 03:18:43;;;;;;;67.00;33.60;;;;;;;0.09;100.00;99395.06;2209187;81;20966;-85
2021/10/26 03:21:44;;;;;;;63.52;33.35;;;;;;;0.11;100.00;99397.11;2208958;81;21006;-83
2021/10/26 03:24:44;;;;;;;64.37;33.88;;;;;;;0.10;100.00;99392.42;2208731;80;20958;-84
2021/10/26 03:27:45;;;;;;;59.88;31.77;;;;;;;0.10;100.00;99397.57;2208663;80;22079;-85
2021/10/26 03:30:46;;;;;;;65.05;33.63;;;;;;;0.11;100.00;99393.25;2202068;80;21111;-83
2021/10/26 03:33:47;;;;;;;67.08;35.78;;;;;;;0.01;100.00;99393.00;2200070;81;21446;-84
2021/10/26 03:36:48;;;;;;;65.55;36.68;;;;;;;-0.03;100.00;99397.95;2200079;81;21016;-83
2021/10/26 03:39:54;;;;;;;64.17;33.67;;;;;;;-0.01;100.00;99393.53;2199909;81;20918;-85
2021/10/26 03:42:51;;;;;;;66.57;35.63;;;;;;;-0.02;100.00;99388.84;2199218;81;20996;-85
2021/10/26 03:45:52;;;;;;;67.17;35.10;;;;;;;-0.02;100.00;99390.13;2200012;81;20962;-86
2021/10/26 03:48:53;;;;;;;65.20;34.50;;;;;;;0.02;100.00;99394.65;2199972;81;21301;-86
2021/10/26 03:51:54;;;;;;;60.52;35.85;;;;;;;0.05;100.00;99392.33;2199939;81;21012;-83
2021/10/26 03:54:56;;;;;;;70.65;37.23;;;;;;;0.09;100.00;99395.06;2199859;81;21485;-84
2021/10/26 03:57:57;;;;;;;60.60;34.85;;;;;;;0.11;100.00;99389.38;2199952;81;21029;-83
2021/10/26 04:00:57;;;;;;;67.72;35.28;;;;;;;0.10;100.00;99385.16;2199973;81;20958;-85
2021/10/26 04:03:58;;;;;;;64.92;34.63;;;;;;;0.15;100.00;99401.13;2199904;81;20980;-84
2021/10/26 04:07:01;;;;;;;68.20;35.65;;;;;;;0.15;100.00;99385.67;2200252;81;21479;-85
2021/10/26 04:10:06;;;;;;;66.10;34.73;;;;;;;0.15;100.00;99386.50;2200258;81;21602;-85
2021/10/26 04:13:04;;;;;;;63.28;33.98;;;;;;;0.18;100.00;99383.75;2199557;81;21555;-83
2021/10/26 04:16:05;;;;;;;63.30;36.38;;;;;;;0.22;100.00;99382.62;2199921;81;20930;-84
2021/10/26 04:19:06;;;;;;;73.87;37.48;;;;;;;0.23;100.00;99375.71;2200187;81;21578;-84
2021/10/26 04:22:07;;;;;;;67.67;37.85;;;;;;;0.22;100.00;99385.20;2200011;81;20982;-84
2021/10/26 04:25:07;;;;;;;73.15;36.65;;;;;;;0.17;100.00;99380.78;2200183;81;21575;-85
2021/10/26 04:28:08;;;;;;;71.85;36.70;;;;;;;0.18;100.00;99376.45;2199924;81;20953;-85
2021/10/26 04:31:09;;;;;;;76.05;37.25;;;;;;;0.15;100.00;99376.66;2199772;81;21586;-84
2021/10/26 04:34:10;;;;;;;72.90;39.80;;;;;;;0.16;100.00;99374.45;2199881;81;20963;-85
2021/10/26 04:37:11;;;;;;;83.90;43.35;;;;;;;0.18;100.00;99378.59;2200077;81;21553;-80
2021/10/26 04:40:12;;;;;;;91.70;48.23;;;;;;;0.19;100.00;99368.66;2217656;80;20944;-80
2021/10/26 04:43:13;;;;;;;94.25;48.48;;;;;;;0.19;100.00;99370.41;2176172;82;20968;-82
2021/10/26 04:46:14;;;;;;;89.30;46.10;;;;;;;0.19;100.00;99361.39;2174909;81;21094;-85
2021/10/26 04:49:15;;;;;;;89.42;45.43;;;;;;;0.21;100.00;99360.83;2174013;81;21014;-85
2021/10/26 04:52:16;;;;;;;95.15;47.40;;;;;;;0.24;100.00;99352.89;2173791;81;21007;-84
2021/10/26 04:55:17;;;;;;;78.70;39.98;;;;;;;0.23;100.00;99358.51;2173789;82;20972;-83
2021/10/26 04:58:17;;;;;;;57.48;31.65;;;;;;;0.22;100.00;99362.48;2173843;82;21034;-84
2021/10/26 05:01:18;;;;;;;51.83;28.00;;;;;;;0.25;100.00;99368.70;2173898;82;21014;-83
2021/10/26 05:04:19;;;;;;;45.33;25.97;;;;;;;0.32;100.00;99360.13;2174205;82;20963;-82
2021/10/26 05:07:20;;;;;;;52.15;27.55;;;;;;;0.39;100.00;99362.68;2174255;81;20970;-83
2021/10/26 05:10:21;;;;;;;46.63;26.42;;;;;;;0.45;100.00;99359.22;2173884;82;21458;-84
2021/10/26 05:13:22;;;;;;;46.90;27.05;;;;;;;0.51;100.00;99361.88;2173818;81;21004;-82
2021/10/26 05:16:25;;;;;;;54.08;25.43;;;;;;;0.56;100.00;99363.23;2173900;81;21490;-84
2021/10/26 05:19:28;;;;;;;44.48;23.73;;;;;;;0.65;100.00;99363.56;2173673;82;20974;-84
2021/10/26 05:22:29;;;;;;;43.90;26.02;;;;;;;0.71;100.00;99362.67;2173811;81;21062;-82
2021/10/26 05:25:30;;;;;;;44.75;24.25;;;;;;;0.78;100.00;99365.67;2173770;82;21045;-83
2021/10/26 05:28:31;;;;;;;46.88;24.77;;;;;;;0.81;100.00;99370.16;2173875;81;20948;-83
2021/10/26 05:31:32;;;;;;;38.88;22.85;;;;;;;0.85;100.00;99365.64;2194820;79;21038;-84
2021/10/26 05:34:33;;;;;;;46.05;24.18;;;;;;;0.91;100.00;99364.38;2220313;80;20952;-83
2021/10/26 05:37:34;;;;;;;45.80;26.12;;;;;;;0.99;100.00;99371.15;2241806;79;21093;-85
2021/10/26 05:40:35;;;;;;;42.62;28.47;;;;;;;1.07;100.00;99374.86;2241651;79;21030;-87
2021/10/26 05:43:36;;;;;;;42.53;27.73;;;;;;;1.12;100.00;99379.73;2240564;79;20986;-87
2021/10/26 05:46:37;;;;;;;49.08;27.82;;;;;;;1.16;100.00;99377.29;2240413;79;21486;-84
2021/10/26 05:49:38;;;;;;;44.50;26.37;;;;;;;1.20;100.00;99379.22;2240483;79;20970;-85
2021/10/26 05:52:39;;;;;;;45.35;25.50;;;;;;;1.27;100.00;99377.84;2240373;79;21457;-86
2021/10/26 05:55:42;;;;;;;50.17;27.80;;;;;;;1.38;100.00;99377.96;2240428;79;21277;-86
2021/10/26 05:58:42;;;;;;;48.15;26.80;;;;;;;1.47;100.00;99376.50;2240515;79;20990;-85
2021/10/26 06:01:43;;;;;;;47.13;28.23;;;;;;;1.55;100.00;99376.77;2219239;80;21025;-85
2021/10/26 06:04:45;;;;;;;43.73;25.65;;;;;;;1.61;100.00;99378.94;2240490;79;21083;-81
2021/10/26 06:07:45;;;;;;;44.85;26.68;;;;;;;1.64;100.00;99380.00;2240364;79;22153;-84
2021/10/26 06:10:52;;;;;;;40.33;23.57;;;;;;;1.67;100.00;99387.56;2240549;79;21006;-85
2021/10/26 06:14:00;;;;;;;33.90;21.35;;;;;;;1.76;100.00;99393.84;2239865;79;20971;-83
2021/10/26 06:16:52;;;;;;;33.30;21.00;;;;;;;1.86;100.00;99398.72;2216830;80;21535;-86
2021/10/26 06:19:52;;;;;;;39.42;21.48;;;;;;;1.99;100.00;99395.61;2240577;79;20920;-85
2021/10/26 06:22:53;;;;;;;36.88;22.13;;;;;;;2.11;100.00;99394.77;2240597;79;20960;-84
2021/10/26 06:25:54;;;;;;;38.55;21.25;;;;;;;2.24;100.00;99398.58;2241233;79;21026;-81
2021/10/26 06:28:55;;;;;;;41.15;21.82;;;;;;;2.36;100.00;99404.61;2240575;79;20948;-82
2021/10/26 06:31:56;;;;;;;36.42;21.70;;;;;;;2.46;100.00;99404.30;2240300;78;20994;-83
2021/10/26 06:34:57;;;;;;;37.95;21.65;;;;;;;2.58;100.00;99403.43;2240448;79;20946;-84
2021/10/26 06:37:58;;;;;;;40.08;22.82;;;;;;;2.74;100.00;99412.16;2240365;79;21045;-83
2021/10/26 06:40:59;;;;;;;40.33;23.27;;;;;;;2.88;100.00;99413.74;2240412;79;21014;-83
2021/10/26 06:43:59;;;;;;;41.05;21.42;;;;;;;3.04;100.00;99418.14;2240444;79;21972;-85
2021/10/26 06:47:00;;;;;;;38.95;22.98;;;;;;;3.16;100.00;99419.80;2240424;79;21017;-84
2021/10/26 06:50:01;;;;;;;42.90;21.20;;;;;;;3.28;100.00;99418.04;2240428;79;20953;-85
2021/10/26 06:53:02;;;;;;;35.00;20.70;;;;;;;3.43;100.00;99423.36;2240298;79;21469;-84
2021/10/26 06:56:06;;;;;;;41.35;22.02;;;;;;;3.56;100.00;99422.77;2240590;79;21021;-86
2021/10/26 06:59:05;;;;;;;39.25;21.95;;;;;;;3.71;100.00;99427.24;2240864;79;20957;-87
2021/10/26 07:02:06;;;;;;;38.73;20.90;;;;;;;3.86;100.00;99422.18;2240552;79;20977;-84
2021/10/26 07:05:08;;;;;;;36.10;21.55;;;;;;;4.03;100.00;99427.81;2240491;79;20950;-84
2021/10/26 07:08:08;;;;;;;36.35;25.35;;;;;;;4.13;100.00;99425.67;2240404;79;21037;-84
2021/10/26 07:11:09;;;;;;;41.42;22.65;;;;;;;4.24;100.00;99424.34;2240580;79;20942;-85
2021/10/26 07:14:11;;;;;;;46.20;23.32;;;;;;;4.38;100.00;99424.52;2240447;79;20961;-83
2021/10/26 07:17:12;;;;;;;41.02;23.30;;;;;;;4.54;100.00;99430.13;2240351;79;21017;-84
2021/10/26 07:20:13;;;;;;;39.42;24.10;;;;;;;4.92;100.00;99427.48;2240550;79;20934;-85
2021/10/26 07:23:14;;;;;;;41.28;23.07;;;;;;;4.92;100.00;99427.48;2240588;79;21525;-83
2021/10/26 07:26:15;;;;;;;32.85;19.50;;;;;;;5.15;100.00;99426.89;2244256;79;20926;-81
2021/10/26 07:29:17;;;;;;;35.45;21.68;;;;;;;5.35;100.00;99424.73;2243826;79;21048;-86
2021/10/26 07:32:19;;;;;;;26.60;17.87;;;;;;;5.58;100.00;99422.81;2241041;79;21001;-85
2021/10/26 07:35:20;;;;;;;29.18;19.48;;;;;;;5.80;100.00;99423.09;2240744;79;21107;-84
2021/10/26 07:38:28;;;;;;;27.30;18.27;;;;;;;6.04;100.00;99427.17;2240664;79;21027;-84
2021/10/26 07:41:26;;;;;;;30.77;18.65;;;;;;;6.27;100.00;99431.17;2240517;79;21472;-83
2021/10/26 07:44:27;;;;;;;29.42;19.95;;;;;;;6.49;100.00;99427.03;2240714;79;20950;-83
2021/10/26 07:47:28;;;;;;;29.27;18.65;;;;;;;6.70;100.00;99428.67;2240859;79;21494;-82
2021/10/26 07:50:29;;;;;;;23.35;16.60;;;;;;;6.87;100.00;99418.88;2240774;79;20958;-82
2021/10/26 07:53:30;;;;;;;21.90;16.05;;;;;;;7.01;100.00;99424.94;2240612;79;21448;-82
2021/10/26 07:56:30;;;;;;;34.55;16.55;;;;;;;7.15;100.00;99418.97;2240548;79;20923;-83
2021/10/26 07:59:32;;;;;;;26.70;15.93;;;;;;;7.29;100.00;99431.05;2240537;79;21017;-82
2021/10/26 08:02:33;;;;;;;28.92;18.70;;;;;;;7.43;100.00;99413.34;2242315;79;20993;-79
2021/10/26 08:05:34;;;;;;;33.23;23.00;;;;;;;7.58;100.00;99412.71;2243416;79;20961;-80
2021/10/26 08:08:36;;;;;;;33.63;21.33;;;;;;;7.67;100.00;99419.67;2241990;79;21001;-82
2021/10/26 08:11:37;;;;;;;29.37;20.92;;;;;;;7.79;100.00;99420.33;2240770;79;21395;-83
2021/10/26 08:14:38;;;;;;;27.45;18.40;;;;;;;7.87;100.00;99409.17;2240736;79;20965;-82
2021/10/26 08:17:39;;;;;;;30.37;18.17;;;;;;;8.01;100.00;99413.06;2240559;79;20945;-83
2021/10/26 08:20:40;;;;;;;24.23;17.05;;;;;;;8.12;100.00;99412.38;2240603;79;20981;-83
2021/10/26 08:23:43;;;;;;;22.15;16.57;;;;;;;8.29;100.00;99412.06;2240385;79;21491;-83
2021/10/26 08:26:47;;;;;;;28.40;14.47;;;;;;;8.48;100.00;99406.73;2240566;79;21045;-82
2021/10/26 08:32:54;;;;;;;36.50;21.60;;;;;;;8.97;100.00;99406.34;2252826;78;21639;-83
2021/10/26 08:35:51;;;;;;;25.62;15.35;;;;;;;9.19;100.00;99395.86;2252540;79;20929;-84
2021/10/26 08:38:53;;;;;;;28.75;18.37;;;;;;;9.39;100.00;99392.05;2253245;79;21000;-82
2021/10/26 08:41:54;;;;;;;31.02;19.00;;;;;;;9.59;100.00;99393.94;2253579;79;21004;-83
2021/10/26 08:44:55;;;;;;;22.93;14.58;;;;;;;9.73;100.00;99401.20;2253008;79;20934;-84
2021/10/26 08:47:56;;;;;;;21.95;13.75;;;;;;;9.89;100.00;99395.23;2252942;79;20973;-82
2021/10/26 08:50:59;;;;;;;19.52;13.53;;;;;;;10.03;100.00;99399.02;2253081;79;20968;-83
2021/10/26 08:54:00;;;;;;;33.55;18.87;;;;;;;10.18;100.00;99398.73;2253191;79;21029;-83
2021/10/26 08:57:03;;;;;;;23.27;16.17;;;;;;;10.31;100.00;99395.19;2232383;79;21087;-83
2021/10/26 09:00:07;;;;;;;25.97;17.75;;;;;;;10.44;100.00;99394.23;2253054;79;21088;-83
2021/10/26 09:03:09;;;;;;;19.70;14.10;;;;;;;10.57;100.00;99389.00;2253228;79;21036;-83
2021/10/26 09:06:10;;;;;;;27.85;16.55;;;;;;;10.66;100.00;99394.57;2253581;79;21527;-83
2021/10/26 09:09:13;;;;;;;39.67;22.50;;;;;;;10.73;100.00;99394.25;2253072;79;20981;-84
2021/10/26 09:18:37;;;;;;;33.38;20.35;;;;;;;11.00;100.00;99392.60;2253250;79;20993;-84
2021/10/26 09:21:39;;;;;;;40.33;25.75;;;;;;;11.13;100.00;99393.39;2252866;79;21567;-84
2021/10/26 09:24:40;;;;;;;35.98;22.93;;;;;;;11.27;99.20;99387.97;2253201;79;21008;-83
2021/10/26 09:27:43;;;;;;;27.22;17.95;;;;;;;11.39;99.07;99386.62;2253053;79;20953;-83
2021/10/26 09:30:44;;;;;;;25.48;16.00;;;;;;;11.52;98.32;99383.45;2250530;79;21077;-84
2021/10/26 09:33:45;;;;;;;13.22;10.48;;;;;;;11.61;97.27;99382.44;2240602;79;21002;-83
2021/10/26 09:36:47;;;;;;;12.95;9.30;;;;;;;11.62;94.25;99382.79;2240387;79;20981;-83
2021/10/26 09:39:48;;;;;;;13.45;8.90;;;;;;;11.71;95.29;99387.02;2240489;79;20941;-84
2021/10/26 09:42:49;;;;;;;11.10;8.28;;;;;;;11.78;92.56;99383.20;2240444;79;20954;-83
2021/10/26 09:45:51;;;;;;;12.82;7.67;;;;;;;11.82;92.75;99385.84;2240526;79;21039;-84
2021/10/26 09:48:52;;;;;;;12.35;7.83;;;;;;;11.89;92.47;99382.38;2240415;79;21001;-84
2021/10/26 09:51:53;;;;;;;8.33;7.15;;;;;;;12.00;91.41;99381.17;2240374;79;20942;-84
2021/10/26 09:54:54;;;;;;;13.55;7.87;;;;;;;12.11;89.54;99381.27;2241089;79;21035;-84
2021/10/26 09:57:57;;;;;;;18.85;11.73;;;;;;;12.17;88.24;99376.15;2240585;79;20941;-85
2021/10/26 10:00:58;;;;;;;37.53;18.77;;;;;;;12.26;88.54;99376.10;2240611;79;20976;-84
2021/10/26 10:03:59;;;;;;;47.60;24.63;;;;;;;12.30;88.00;99364.25;2240467;79;20937;-83
2021/10/26 10:07:00;;;;;;;46.35;24.02;;;;;;;12.44;87.13;99371.38;2240647;79;21045;-83
2021/10/26 10:10:04;;;;;;;28.50;18.25;;;;;;;12.48;85.48;99362.14;2241804;79;20930;-80
2021/10/26 10:13:04;;;;;;;35.88;23.02;;;;;;;12.57;84.37;99365.53;2244136;79;20977;-81
2021/10/26 10:16:05;;;;;;;17.57;12.28;;;;;;;12.61;85.04;99364.16;2241411;79;20943;-83
2021/10/26 10:19:08;;;;;;;12.78;9.63;;;;;;;12.67;83.19;99356.41;2242171;79;21017;-83
2021/10/26 10:22:10;;;;;;;11.78;8.38;;;;;;;12.74;82.48;99352.58;2240703;79;21437;-84
2021/10/26 10:25:11;;;;;;;12.10;9.25;;;;;;;12.79;81.05;99354.16;2240563;79;21549;-85
2021/10/26 10:28:13;;;;;;;9.40;6.67;;;;;;;12.83;79.25;99349.38;2240424;79;20993;-83
2021/10/26 10:31:15;;;;;;;13.98;7.17;;;;;;;12.84;78.14;99340.00;2231540;79;21032;-82
2021/10/26 10:34:16;;;;;;;8.38;6.33;;;;;;;12.82;78.08;99342.00;2208483;81;21019;-83
2021/10/26 10:37:17;;;;;;;12.00;7.25;;;;;;;12.83;77.04;99341.50;2208611;80;21011;-85
2021/10/26 10:40:18;;;;;;;13.78;8.65;;;;;;;12.78;76.15;99333.63;2208975;80;21064;-84
2021/10/26 10:43:20;;;;;;;11.15;7.25;;;;;;;12.75;76.17;99320.86;2208672;81;21060;-83
2021/10/26 10:46:21;;;;;;;10.03;7.58;;;;;;;12.75;76.17;99320.86;2208570;81;20961;-84
2021/10/26 10:49:23;;;;;;;10.93;7.80;;;;;;;12.84;75.68;99328.17;2208556;81;21035;-83
2021/10/26 10:52:25;;;;;;;12.00;7.87;;;;;;;12.86;76.31;99332.75;2208451;81;21575;-85
2021/10/26 10:55:27;;;;;;;10.48;6.78;;;;;;;12.89;76.17;99327.63;2208586;81;21000;-86
2021/10/26 10:58:28;;;;;;;11.38;7.17;;;;;;;12.84;73.52;99314.22;2208468;81;21005;-84
2021/10/26 11:01:36;;;;;;;10.00;7.58;;;;;;;12.76;73.81;99311.98;2208527;81;21013;-84
2021/10/26 11:04:37;;;;;;;11.22;8.23;;;;;;;12.74;73.95;99308.72;2208875;80;21479;-84
2021/10/26 11:07:39;;;;;;;11.30;7.87;;;;;;;12.72;73.58;99309.41;2208760;81;20988;-83
2021/10/26 11:10:40;;;;;;;9.75;7.50;;;;;;;12.72;73.27;99305.47;2208829;80;21016;-84
2021/10/26 11:13:41;;;;;;;8.55;6.85;;;;;;;12.73;74.20;99304.47;2209005;81;20997;-84
2021/10/26 11:16:42;;;;;;;11.70;7.83;;;;;;;12.75;73.95;99305.09;2208844;81;21075;-84
2021/10/26 11:19:44;;;;;;;9.95;8.18;;;;;;;12.77;73.02;99310.98;2208869;81;20977;-85
2021/10/26 11:22:45;;;;;;;10.05;7.75;;;;;;;12.75;71.41;99302.97;2208530;81;20969;-84
2021/10/26 11:25:46;;;;;;;12.10;8.95;;;;;;;12.73;69.93;99301.84;2208911;81;21052;-85
2021/10/26 11:28:47;;;;;;;16.32;9.45;;;;;;;12.71;71.53;99305.62;2208722;81;20921;-84
2021/10/26 11:31:48;;;;;;;12.93;8.95;;;;;;;12.71;72.10;99306.94;2221208;79;21052;-82
2021/10/26 11:34:50;;;;;;;15.65;9.40;;;;;;;12.71;71.73;99311.72;2243428;79;21469;-83
2021/10/26 11:37:50;;;;;;;12.78;9.18;;;;;;;12.66;71.88;99302.23;2243615;79;21490;-83
2021/10/26 11:40:51;;;;;;;13.10;9.05;;;;;;;12.56;70.77;99303.48;2243164;79;20891;-84
2021/10/26 11:43:52;;;;;;;23.12;12.73;;;;;;;12.41;71.02;99306.05;2243276;79;21556;-85
2021/10/26 11:46:53;;;;;;;23.90;12.55;;;;;;;12.26;71.43;99307.34;2242913;79;21061;-84
2021/10/26 11:49:54;;;;;;;18.73;12.98;;;;;;;12.13;71.81;99307.91;2243172;79;21503;-84
2021/10/26 11:52:55;;;;;;;19.60;12.63;;;;;;;12.03;71.81;99301.26;2243345;79;20915;-84
2021/10/26 11:55:56;;;;;;;21.40;12.85;;;;;;;12.02;71.84;99299.63;2243245;79;20977;-83
2021/10/26 11:58:58;;;;;;;24.00;14.40;;;;;;;12.04;72.21;99297.14;2243280;79;21457;-84
2021/10/26 12:01:59;;;;;;;22.55;14.98;;;;;;;12.20;72.00;99297.53;2243269;79;20950;-86
2021/10/26 12:05:01;;;;;;;22.82;13.35;;;;;;;12.20;72.00;99297.53;2243316;79;21045;-83
2021/10/26 12:08:02;;;;;;;24.35;14.60;;;;;;;12.26;72.46;99293.39;2243363;79;20934;-84
2021/10/26 12:11:04;;;;;;;22.17;13.95;;;;;;;12.33;71.61;99287.73;2243250;79;21012;-82
2021/10/26 12:14:05;;;;;;;18.90;12.93;;;;;;;12.37;71.58;99285.09;2243287;79;20950;-83
2021/10/26 12:17:06;;;;;;;18.85;13.60;;;;;;;12.37;71.58;99285.09;2243317;79;20965;-82
2021/10/26 12:20:10;;;;;;;21.50;13.75;;;;;;;12.38;71.52;99288.03;2243268;79;21632;-84
2021/10/26 12:23:11;;;;;;;22.73;13.00;;;;;;;12.40;72.26;99280.80;2307003;77;21472;-84
2021/10/26 12:26:11;;;;;;;27.95;16.30;;;;;;;12.40;71.99;99277.67;2307285;77;20969;-84
2021/10/26 12:29:13;;;;;;;22.95;12.75;;;;;;;12.46;71.34;99276.97;2307468;77;21028;-83
2021/10/26 12:32:13;;;;;;;20.92;13.22;;;;;;;12.46;71.34;99276.97;2307232;77;21027;-85
2021/10/26 12:35:14;;;;;;;19.02;12.78;;;;;;;12.48;71.91;99276.78;2307369;77;20995;-83
2021/10/26 12:38:18;;;;;;;17.80;12.58;;;;;;;12.50;71.81;99270.35;2308011;77;20945;-82
2021/10/26 12:41:19;;;;;;;16.97;11.48;;;;;;;12.57;72.18;99270.47;2310082;77;21017;-80
2021/10/26 12:44:23;;;;;;;18.30;11.95;;;;;;;12.59;72.39;99272.41;2308900;77;21001;-83
2021/10/26 12:47:23;;;;;;;16.65;10.93;;;;;;;12.60;71.82;99269.28;2308993;77;20976;-83
2021/10/26 12:50:25;;;;;;;13.25;10.90;;;;;;;12.60;71.90;99275.34;2307285;77;21009;-82
2021/10/26 12:53:26;;;;;;;21.20;12.13;;;;;;;12.62;71.84;99269.91;2308490;77;20937;-78
2021/10/26 12:56:27;;;;;;;18.10;12.10;;;;;;;12.61;71.88;99267.78;2312078;77;20925;-80
2021/10/26 12:59:28;;;;;;;18.80;11.90;;;;;;;12.62;72.13;99264.66;2309249;77;20988;-83
2021/10/26 13:02:31;;;;;;;18.20;11.45;;;;;;;12.61;72.12;99261.22;2307949;77;20926;-84
2021/10/26 13:05:32;;;;;;;18.25;12.15;;;;;;;12.63;72.18;99268.45;2308719;77;21008;-79
2021/10/26 13:08:33;;;;;;;18.48;11.60;;;;;;;12.63;72.47;99266.31;2307336;77;21437;-83
2021/10/26 13:11:34;;;;;;;17.30;11.45;;;;;;;12.63;72.73;99261.87;2307260;77;21020;-84
2021/10/26 13:14:35;;;;;;;19.02;12.28;;;;;;;12.63;72.50;99264.50;2307108;77;20980;-84
2021/10/26 13:17:36;;;;;;;14.68;11.50;;;;;;;12.62;72.84;99260.72;2307182;77;21496;-84
2021/10/26 13:20:45;;;;;;;16.52;12.93;;;;;;;12.61;73.16;99251.20;2307196;77;20945;-84
2021/10/26 13:23:46;;;;;;;19.25;11.68;;;;;;;12.60;73.30;99256.95;2307226;77;21466;-83
2021/10/26 13:26:47;;;;;;;24.55;15.30;;;;;;;12.59;73.35;99242.20;2307127;77;21487;-83
2021/10/26 13:29:48;;;;;;;38.50;20.12;;;;;;;12.61;73.36;99248.08;2307235;77;21129;-81
2021/10/26 13:32:49;;;;;;;40.63;22.15;;;;;;;12.60;73.38;99247.77;2295464;77;21517;-83
2021/10/26 13:35:51;;;;;;;38.98;20.90;;;;;;;12.58;73.51;99243.20;2286767;78;20985;-84
2021/10/26 13:38:52;;;;;;;28.35;16.87;;;;;;;12.57;73.87;99253.89;2286666;78;20976;-82
2021/10/26 13:41:57;;;;;;;25.48;15.83;;;;;;;12.53;73.75;99247.69;2286564;78;20986;-83
2021/10/26 13:44:58;;;;;;;26.85;15.63;;;;;;;12.47;73.99;99252.33;2286544;78;21044;-82
2021/10/26 13:47:59;;;;;;;35.35;21.57;;;;;;;12.47;73.99;99252.33;2286428;78;21546;-84
2021/10/26 13:50:59;;;;;;;28.20;15.60;;;;;;;12.44;74.35;99252.70;2286406;77;20981;-83
2021/10/26 13:54:01;;;;;;;22.58;14.80;;;;;;;12.40;74.34;99254.03;2286615;78;20969;-83
2021/10/26 13:57:02;;;;;;;18.37;11.63;;;;;;;12.37;74.64;99247.83;2287357;78;20981;-84
2021/10/26 14:00:08;;;;;;;16.57;11.45;;;;;;;12.32;74.67;99255.41;2286707;77;21004;-83
2021/10/26 14:03:05;;;;;;;20.52;12.37;;;;;;;12.28;74.86;99253.33;2286063;77;21056;-83